createdAt,value
2022-10-17T00:00:06.376Z,11.10
2022-10-17T00:02:08.298Z,10.52
2022-10-17T00:04:10.267Z,10.98
2022-10-17T00:09:27.899Z,9.95
2022-10-17T00:11:29.950Z,9.90
2022-10-17T00:15:36.586Z,10.30
2022-10-17T00:17:38.601Z,9.98
2022-10-17T00:19:40.463Z,10.45
2022-10-17T00:21:42.300Z,10.50
2022-10-17T00:23:44.270Z,10.32
2022-10-17T00:25:47.133Z,11.52
2022-10-17T00:27:49.020Z,9.70
2022-10-17T00:29:52.201Z,10.02
2022-10-17T00:31:57.579Z,10.73
2022-10-17T00:33:59.388Z,10.25
2022-10-17T00:36:03.799Z,11.25
2022-10-17T00:38:05.663Z,10.02
2022-10-17T00:40:08.651Z,9.88
2022-10-17T00:42:13.747Z,10.23
2022-10-17T00:44:30.842Z,10.23
2022-10-17T00:46:42.759Z,10.25
2022-10-17T00:48:45.578Z,10.75
2022-10-17T00:50:49.768Z,9.75
2022-10-17T00:52:53.481Z,10.70
2022-10-17T00:55:03.739Z,10.00
2022-10-17T00:57:06.507Z,10.18
2022-10-17T00:59:13.562Z,9.80
2022-10-17T01:01:15.866Z,10.00
2022-10-17T01:03:17.887Z,10.00
2022-10-17T01:05:20.426Z,9.55
2022-10-17T01:07:23.239Z,9.20
2022-10-17T01:09:26.691Z,9.93
2022-10-17T01:11:33.862Z,10.68
2022-10-17T01:14:09.339Z,9.80
2022-10-17T01:16:25.798Z,9.88
2022-10-17T01:18:41.866Z,9.68
2022-10-17T01:21:16.021Z,10.32
2022-10-17T01:23:45.532Z,10.48
2022-10-17T01:26:12.092Z,8.90
2022-10-17T01:28:35.139Z,9.60
2022-10-17T01:30:50.784Z,8.88
2022-10-17T01:33:02.910Z,8.98
2022-10-17T01:35:18.111Z,9.77
2022-10-17T01:37:36.285Z,9.43
2022-10-17T01:39:46.969Z,10.07
2022-10-17T01:44:08.202Z,8.60
2022-10-17T01:46:26.887Z,10.07
2022-10-17T01:48:35.878Z,10.35
2022-10-17T01:50:44.850Z,9.82
2022-10-17T01:53:01.604Z,10.32
2022-10-17T01:55:10.635Z,10.50
2022-10-17T01:57:20.710Z,10.10
2022-10-17T01:59:32.118Z,9.85
2022-10-17T02:01:37.165Z,9.88
2022-10-17T02:03:43.487Z,10.23
2022-10-17T02:05:45.849Z,9.43
2022-10-17T02:07:48.683Z,10.05
2022-10-17T02:09:50.588Z,10.43
2022-10-17T02:11:58.043Z,9.23
2022-10-17T02:14:19.634Z,8.57
2022-10-17T02:19:04.873Z,10.02
2022-10-17T02:21:13.336Z,9.00
2022-10-17T02:23:25.946Z,10.63
2022-10-17T02:25:45.042Z,11.07
2022-10-17T02:28:17.772Z,11.63
2022-10-17T02:30:31.725Z,11.48
2022-10-17T02:32:45.458Z,10.98
2022-10-17T02:34:53.797Z,10.05
2022-10-17T02:37:02.336Z,9.73
2022-10-17T02:39:05.564Z,10.43
2022-10-17T02:41:11.250Z,10.18
2022-10-17T02:43:14.963Z,11.13
2022-10-17T02:45:17.863Z,10.88
2022-10-17T02:47:28.391Z,11.20
2022-10-17T02:49:36.379Z,10.18
2022-10-17T02:51:57.972Z,10.50
2022-10-17T02:56:20.264Z,11.73
2022-10-17T02:58:29.276Z,13.02
2022-10-17T03:00:32.078Z,11.35
2022-10-17T03:02:51.180Z,10.90
2022-10-17T03:04:56.542Z,10.27
2022-10-17T03:06:58.533Z,11.70
2022-10-17T03:09:00.465Z,12.45
2022-10-17T03:11:03.586Z,11.50
2022-10-17T03:13:06.458Z,12.10
2022-10-17T03:15:08.980Z,12.02
2022-10-17T03:17:10.873Z,11.95
2022-10-17T03:19:13.097Z,11.85
2022-10-17T03:21:14.926Z,11.55
2022-10-17T03:23:16.743Z,11.55
2022-10-17T03:25:18.884Z,12.95
2022-10-17T03:27:20.774Z,11.60
2022-10-17T03:29:22.528Z,10.40
2022-10-17T03:31:25.435Z,9.90
2022-10-17T03:33:28.337Z,12.30
2022-10-17T03:35:30.375Z,11.82
2022-10-17T03:37:32.439Z,12.40
2022-10-17T03:39:34.444Z,12.95
2022-10-17T03:41:36.539Z,11.68
2022-10-17T03:43:39.905Z,11.85
2022-10-17T03:45:41.747Z,11.60
2022-10-17T03:47:43.550Z,11.10
2022-10-17T03:49:48.614Z,15.85
2022-10-17T03:51:51.521Z,13.23
2022-10-17T03:53:53.442Z,14.52
2022-10-17T03:55:55.505Z,12.75
2022-10-17T03:57:57.371Z,12.30
2022-10-17T03:59:59.335Z,10.55
2022-10-17T04:02:01.265Z,10.82
2022-10-17T04:04:04.216Z,11.73
2022-10-17T04:06:07.023Z,12.48
2022-10-17T04:08:08.860Z,11.45
2022-10-17T04:10:11.187Z,11.07
2022-10-17T04:12:13.060Z,12.20
2022-10-17T04:14:15.000Z,12.20
2022-10-17T04:16:17.869Z,22.55
2022-10-17T04:18:19.769Z,14.57
2022-10-17T04:20:21.604Z,16.67
2022-10-17T04:22:23.705Z,14.70
2022-10-17T04:24:26.080Z,11.35
2022-10-17T04:26:29.993Z,12.00
2022-10-17T04:28:33.419Z,11.65
2022-10-17T04:30:35.352Z,11.23
2022-10-17T04:32:39.241Z,11.95
2022-10-17T04:34:41.177Z,12.18
2022-10-17T04:36:44.172Z,12.18
2022-10-17T04:38:46.674Z,13.35
2022-10-17T04:40:48.547Z,12.27
2022-10-17T04:42:50.470Z,12.40
2022-10-17T04:44:55.478Z,12.90
2022-10-17T04:46:57.286Z,11.75
2022-10-17T04:48:59.188Z,11.93
2022-10-17T04:51:03.892Z,12.75
2022-10-17T04:53:05.833Z,14.32
2022-10-17T04:55:08.111Z,13.48
2022-10-17T04:57:10.084Z,14.05
2022-10-17T04:59:11.938Z,14.15
2022-10-17T05:01:19.444Z,13.38
2022-10-17T05:03:21.500Z,12.07
2022-10-17T05:05:23.538Z,11.93
2022-10-17T05:07:26.444Z,13.82
2022-10-17T05:09:28.538Z,12.93
2022-10-17T05:11:31.531Z,11.13
2022-10-17T05:13:33.559Z,12.95
2022-10-17T05:15:36.413Z,12.63
2022-10-17T05:17:38.330Z,12.00
2022-10-17T05:19:40.158Z,11.68
2022-10-17T05:21:42.095Z,11.73
2022-10-17T05:23:44.112Z,11.68
2022-10-17T05:25:46.014Z,13.35
2022-10-17T05:27:47.906Z,11.77
2022-10-17T05:29:49.762Z,11.60
2022-10-17T05:31:51.808Z,12.30
2022-10-17T05:33:54.674Z,12.98
2022-10-17T05:35:56.574Z,12.45
2022-10-17T05:37:58.594Z,10.50
2022-10-17T05:40:01.433Z,11.52
2022-10-17T05:42:03.636Z,11.63
2022-10-17T05:44:05.904Z,11.88
2022-10-17T05:46:07.910Z,12.27
2022-10-17T05:48:09.768Z,12.40
2022-10-17T05:50:11.750Z,12.77
2022-10-17T05:52:13.604Z,12.15
2022-10-17T05:54:17.407Z,13.00
2022-10-17T05:56:20.590Z,13.43
2022-10-17T05:58:32.470Z,12.65
2022-10-17T06:02:48.736Z,13.73
2022-10-17T06:04:50.631Z,12.98
2022-10-17T06:06:53.809Z,13.13
2022-10-17T06:08:55.679Z,11.95
2022-10-17T06:10:57.588Z,13.35
2022-10-17T06:12:59.473Z,15.00
2022-10-17T06:15:06.115Z,15.30
2022-10-17T06:17:12.119Z,14.10
2022-10-17T06:19:20.857Z,15.32
2022-10-17T06:21:26.365Z,15.25
2022-10-17T06:23:28.324Z,15.73
2022-10-17T06:25:33.798Z,15.10
2022-10-17T06:27:35.700Z,14.15
2022-10-17T06:29:37.646Z,13.88
2022-10-17T06:31:39.620Z,15.93
2022-10-17T06:33:41.909Z,15.43
2022-10-17T06:35:44.168Z,15.63
2022-10-17T06:37:46.274Z,15.95
2022-10-17T06:39:48.148Z,15.65
2022-10-17T06:41:49.994Z,16.35
2022-10-17T06:43:51.984Z,15.70
2022-10-17T06:45:53.922Z,17.08
2022-10-17T06:47:55.802Z,17.42
2022-10-17T06:49:57.746Z,18.35
2022-10-17T06:51:59.595Z,18.25
2022-10-17T06:54:01.583Z,17.23
2022-10-17T06:56:05.017Z,16.30
2022-10-17T06:58:06.958Z,15.10
2022-10-17T07:00:09.428Z,15.73
2022-10-17T07:02:11.652Z,15.40
2022-10-17T07:04:13.536Z,14.93
2022-10-17T07:06:15.446Z,15.82
2022-10-17T07:08:17.301Z,14.70
2022-10-17T07:10:19.447Z,13.95
2022-10-17T07:12:21.414Z,14.25
2022-10-17T07:14:24.523Z,14.82
2022-10-17T07:16:27.632Z,14.35
2022-10-17T07:18:31.882Z,13.45
2022-10-17T07:20:34.038Z,13.65
2022-10-17T07:22:35.974Z,13.77
2022-10-17T07:24:38.115Z,13.77
2022-10-17T07:26:41.099Z,13.07
2022-10-17T07:28:45.611Z,13.82
2022-10-17T07:30:51.918Z,12.77
2022-10-17T07:32:55.617Z,12.30
2022-10-17T07:34:57.453Z,12.60
2022-10-17T07:36:59.296Z,12.13
2022-10-17T07:39:03.252Z,14.15
2022-10-17T07:41:08.241Z,12.52
2022-10-17T07:43:10.136Z,12.20
2022-10-17T07:45:15.635Z,11.45
2022-10-17T07:47:19.541Z,11.98
2022-10-17T07:49:21.474Z,12.40
2022-10-17T07:51:23.362Z,11.82
2022-10-17T07:53:25.327Z,12.05
2022-10-17T07:55:27.184Z,11.98
2022-10-17T07:57:30.149Z,13.20
2022-10-17T07:59:33.290Z,12.07
2022-10-17T08:01:35.510Z,12.48
2022-10-17T08:03:42.091Z,12.77
2022-10-17T08:05:45.000Z,11.50
2022-10-17T08:07:47.010Z,11.88
2022-10-17T08:09:49.014Z,11.70
2022-10-17T08:11:51.107Z,11.38
2022-10-17T08:13:55.076Z,10.55
2022-10-17T08:16:09.004Z,12.40
2022-10-17T08:18:10.982Z,11.75
2022-10-17T08:20:12.944Z,11.57
2022-10-17T08:22:14.846Z,11.45
2022-10-17T08:24:16.748Z,10.77
2022-10-17T08:26:20.194Z,11.45
2022-10-17T08:28:22.244Z,10.85
2022-10-17T08:30:24.357Z,10.45
2022-10-17T08:32:28.941Z,7.15
2022-10-17T08:34:31.099Z,6.22
2022-10-17T08:36:33.458Z,7.25
2022-10-17T08:38:38.486Z,7.25
2022-10-17T08:40:43.653Z,5.93
2022-10-17T08:43:32.204Z,6.57
2022-10-17T08:45:45.383Z,3.05
2022-10-17T08:47:57.237Z,10.07
2022-10-17T08:50:03.713Z,2.75
2022-10-17T08:52:22.131Z,3.30
2022-10-17T08:54:46.433Z,3.70
2022-10-17T08:56:54.508Z,3.45
2022-10-17T08:58:56.525Z,3.10
2022-10-17T09:01:28.213Z,2.63
2022-10-17T09:05:56.494Z,10.18
2022-10-17T09:08:33.783Z,10.40
2022-10-17T09:10:42.170Z,9.60
2022-10-17T09:13:25.202Z,9.75
2022-10-17T09:15:41.854Z,10.32
2022-10-17T09:17:46.317Z,9.20
2022-10-17T09:20:12.611Z,9.65
2022-10-17T09:22:20.384Z,10.43
2022-10-17T09:24:45.694Z,9.48
2022-10-17T09:26:47.605Z,11.23
2022-10-17T09:28:54.769Z,10.20
2022-10-17T09:31:04.734Z,9.55
2022-10-17T09:33:34.595Z,9.48
2022-10-17T09:35:38.439Z,9.95
2022-10-17T09:37:41.101Z,9.35
2022-10-17T09:39:44.627Z,9.57
2022-10-17T09:41:55.887Z,10.15
2022-10-17T09:43:59.878Z,9.95
2022-10-17T09:46:01.823Z,9.82
2022-10-17T09:48:49.780Z,10.35
2022-10-17T09:51:02.631Z,9.80
2022-10-17T09:56:03.951Z,10.13
2022-10-17T09:58:07.514Z,8.80
2022-10-17T10:00:22.637Z,9.27
2022-10-17T10:02:26.035Z,9.77
2022-10-17T10:05:26.499Z,8.98
2022-10-17T10:08:49.887Z,9.07
2022-10-17T10:10:57.633Z,8.75
2022-10-17T10:14:40.961Z,9.10
2022-10-17T10:16:46.450Z,11.27
2022-10-17T10:18:50.993Z,9.00
2022-10-17T10:21:07.855Z,8.90
2022-10-17T10:23:21.480Z,8.65
2022-10-17T10:25:23.489Z,9.40
2022-10-17T10:27:26.408Z,9.20
2022-10-17T10:29:37.441Z,8.77
2022-10-17T10:31:40.658Z,8.95
2022-10-17T10:33:46.969Z,9.73
2022-10-17T10:36:10.292Z,8.95
2022-10-17T10:38:17.911Z,8.98
2022-10-17T10:40:38.206Z,8.48
2022-10-17T10:42:42.669Z,9.30
2022-10-17T10:44:45.141Z,9.38
2022-10-17T10:46:47.135Z,9.13
2022-10-17T10:48:59.815Z,8.65
2022-10-17T10:51:16.664Z,8.85
2022-10-17T10:53:35.378Z,8.50
2022-10-17T10:55:55.869Z,9.18
2022-10-17T10:58:06.190Z,9.40
2022-10-17T11:00:20.999Z,8.50
2022-10-17T11:02:36.443Z,9.48
2022-10-17T11:04:59.944Z,7.95
2022-10-17T11:07:26.023Z,8.30
2022-10-17T11:09:54.033Z,8.38
2022-10-17T11:12:05.834Z,9.35
2022-10-17T11:14:25.001Z,9.45
2022-10-17T11:16:33.813Z,9.10
2022-10-17T11:19:16.917Z,8.82
2022-10-17T11:21:37.418Z,16.95
2022-10-17T11:24:00.497Z,9.23
2022-10-17T11:26:14.902Z,8.50
2022-10-17T11:28:19.860Z,8.63
2022-10-17T11:30:24.823Z,8.77
2022-10-17T11:32:43.324Z,8.75
2022-10-17T11:34:48.404Z,8.75
2022-10-17T11:36:55.508Z,8.88
2022-10-17T11:39:07.100Z,9.20
2022-10-17T11:41:15.944Z,8.65
2022-10-17T11:43:43.541Z,9.55
2022-10-17T11:46:12.407Z,9.70
2022-10-17T11:48:21.566Z,8.73
2022-10-17T11:53:14.370Z,9.10
2022-10-17T11:55:25.138Z,9.63
2022-10-17T11:57:49.467Z,8.75
2022-10-17T12:00:14.739Z,8.70
2022-10-17T12:02:53.197Z,8.40
2022-10-17T12:05:25.426Z,8.15
2022-10-17T12:07:31.437Z,8.43
2022-10-17T12:10:11.046Z,9.32
2022-10-17T12:12:29.138Z,9.88
2022-10-17T12:14:34.039Z,9.13
2022-10-17T12:16:36.509Z,9.63
2022-10-17T12:18:38.515Z,8.15
2022-10-17T12:20:41.020Z,9.10
2022-10-17T12:22:50.708Z,8.32
2022-10-17T12:25:04.831Z,9.05
2022-10-17T12:27:37.736Z,8.30
2022-10-17T12:29:40.753Z,8.13
2022-10-17T12:31:42.683Z,11.85
2022-10-17T12:33:58.537Z,10.52
2022-10-17T12:36:18.941Z,9.15
2022-10-17T12:38:24.010Z,9.15
2022-10-17T12:40:38.002Z,8.65
2022-10-17T12:42:50.861Z,9.43
2022-10-17T12:44:53.837Z,8.88
2022-10-17T12:46:58.317Z,10.02
2022-10-17T12:49:03.524Z,9.13
2022-10-17T12:51:35.452Z,9.65
2022-10-17T12:53:47.094Z,9.38
2022-10-17T12:55:52.060Z,9.77
2022-10-17T12:58:11.995Z,9.27
2022-10-17T13:00:25.853Z,9.18
2022-10-17T13:02:30.089Z,8.80
2022-10-17T13:04:32.452Z,10.00
2022-10-17T13:06:40.703Z,9.15
2022-10-17T13:08:57.729Z,8.80
2022-10-17T13:11:02.589Z,9.10
2022-10-17T13:13:42.039Z,9.15
2022-10-17T13:15:51.850Z,9.27
2022-10-17T13:18:00.058Z,8.55
2022-10-17T13:20:02.696Z,8.93
2022-10-17T13:22:07.169Z,8.82
2022-10-17T13:24:38.296Z,9.25
2022-10-17T13:26:46.318Z,9.43
2022-10-17T13:29:11.681Z,8.63
2022-10-17T13:31:37.896Z,9.50
2022-10-17T13:33:41.245Z,9.05
2022-10-17T13:38:07.792Z,8.68
2022-10-17T13:42:43.825Z,8.65
2022-10-17T13:44:46.508Z,8.93
2022-10-17T13:46:49.165Z,8.88
2022-10-17T13:48:51.295Z,9.27
2022-10-17T13:51:02.666Z,8.98
2022-10-17T13:53:44.570Z,8.63
2022-10-17T13:56:26.830Z,8.60
2022-10-17T13:58:24.511Z,8.73
2022-10-17T14:00:28.649Z,8.88
2022-10-17T14:02:32.248Z,8.98
2022-10-17T14:05:04.148Z,8.57
2022-10-17T14:06:58.369Z,8.38
2022-10-17T14:09:07.189Z,9.13
2022-10-17T14:11:42.895Z,9.40
2022-10-17T14:13:49.747Z,8.90
2022-10-17T14:15:55.121Z,8.98
2022-10-17T14:18:07.499Z,8.70
2022-10-17T14:22:40.973Z,9.85
2022-10-17T14:24:44.804Z,9.07
2022-10-17T14:27:32.082Z,8.45
2022-10-17T14:30:01.142Z,9.27
2022-10-17T14:32:08.832Z,9.15
2022-10-17T14:34:28.153Z,8.63
2022-10-17T14:36:40.391Z,8.48
2022-10-17T14:38:48.157Z,9.52
2022-10-17T14:41:41.452Z,9.52
2022-10-17T14:43:36.191Z,8.50
2022-10-17T14:45:40.175Z,9.10
2022-10-17T14:47:43.989Z,9.15
2022-10-17T14:49:50.738Z,8.48
2022-10-17T14:52:23.869Z,9.38
2022-10-17T14:54:30.969Z,9.20
2022-10-17T14:56:41.120Z,8.50
2022-10-17T14:58:43.129Z,9.55
2022-10-17T15:00:45.068Z,9.90
2022-10-17T15:02:48.192Z,9.23
2022-10-17T15:04:53.839Z,9.07
2022-10-17T15:06:55.885Z,10.38
2022-10-17T15:09:09.908Z,9.68
2022-10-17T15:11:12.969Z,9.90
2022-10-17T15:13:27.673Z,8.80
2022-10-17T15:15:32.402Z,9.27
2022-10-17T15:17:35.625Z,8.82
2022-10-17T15:19:37.530Z,9.82
2022-10-17T15:21:43.415Z,8.80
2022-10-17T15:23:49.378Z,9.15
2022-10-17T15:25:52.350Z,9.75
2022-10-17T15:27:55.051Z,9.82
2022-10-17T15:30:00.101Z,9.77
2022-10-17T15:32:03.111Z,9.32
2022-10-17T15:34:04.983Z,11.07
2022-10-17T15:36:29.664Z,10.23
2022-10-17T15:38:31.542Z,10.02
2022-10-17T15:40:33.404Z,9.70
2022-10-17T15:42:35.352Z,10.40
2022-10-17T15:44:44.188Z,9.27
2022-10-17T15:46:46.281Z,10.45
2022-10-17T15:48:48.830Z,10.98
2022-10-17T15:50:52.761Z,11.05
2022-10-17T15:53:00.725Z,10.68
2022-10-17T15:55:05.249Z,10.07
2022-10-17T15:57:20.114Z,10.25
2022-10-17T15:59:33.501Z,9.60
2022-10-17T16:01:36.379Z,10.35
2022-10-17T16:03:38.302Z,9.63
2022-10-17T16:05:40.353Z,10.43
2022-10-17T16:07:45.676Z,10.27
2022-10-17T16:09:48.016Z,9.25
2022-10-17T16:11:49.993Z,11.02
2022-10-17T16:13:54.675Z,12.50
2022-10-17T16:15:56.753Z,12.35
2022-10-17T16:18:01.766Z,10.68
2022-10-17T16:20:08.462Z,12.45
2022-10-17T16:22:32.751Z,16.45
2022-10-17T16:24:35.166Z,17.15
2022-10-17T16:26:39.443Z,15.98
2022-10-17T16:28:46.201Z,16.65
2022-10-17T16:30:49.439Z,17.13
2022-10-17T16:32:55.549Z,18.48
2022-10-17T16:34:57.568Z,16.48
2022-10-17T16:36:59.499Z,14.88
2022-10-17T16:39:02.635Z,13.32
2022-10-17T16:41:32.130Z,12.75
2022-10-17T16:43:36.676Z,12.98
2022-10-17T16:45:40.518Z,12.27
2022-10-17T16:47:44.973Z,12.95
2022-10-17T16:49:47.049Z,12.30
2022-10-17T16:51:54.879Z,13.40
2022-10-17T16:54:00.523Z,12.15
2022-10-17T16:56:07.144Z,14.15
2022-10-17T16:58:10.176Z,13.43
2022-10-17T17:00:13.302Z,14.68
2022-10-17T17:02:18.930Z,13.93
2022-10-17T17:04:23.403Z,15.65
2022-10-17T17:06:28.233Z,15.85
2022-10-17T17:08:30.673Z,15.75
2022-10-17T17:10:45.513Z,15.30
2022-10-17T17:12:47.438Z,14.60
2022-10-17T17:14:49.431Z,14.52
2022-10-17T17:16:51.836Z,14.85
2022-10-17T17:19:08.742Z,14.85
2022-10-17T17:21:12.552Z,15.45
2022-10-17T17:23:15.977Z,14.48
2022-10-17T17:25:19.236Z,14.77
2022-10-17T17:27:24.891Z,15.90
2022-10-17T17:29:27.805Z,16.23
2022-10-17T17:31:32.854Z,14.70
2022-10-17T17:33:35.617Z,16.85
2022-10-17T17:35:40.149Z,15.07
2022-10-17T17:37:43.701Z,16.70
2022-10-17T17:39:46.291Z,16.45
2022-10-17T17:41:49.223Z,17.55
2022-10-17T17:43:53.498Z,15.57
2022-10-17T17:45:56.290Z,16.45
2022-10-17T17:48:00.890Z,16.90
2022-10-17T17:50:04.609Z,16.80
2022-10-17T17:52:07.092Z,18.25
2022-10-17T17:54:11.852Z,17.13
2022-10-17T17:56:22.511Z,17.58
2022-10-17T17:58:24.613Z,20.67
2022-10-17T18:00:27.106Z,19.83
2022-10-17T18:02:29.271Z,20.17
2022-10-17T18:04:32.622Z,19.33
2022-10-17T18:06:37.609Z,18.92
2022-10-17T18:08:40.098Z,18.35
2022-10-17T18:10:46.785Z,18.50
2022-10-17T18:12:49.118Z,18.80
2022-10-17T18:14:51.474Z,20.77
2022-10-17T18:16:53.808Z,20.30
2022-10-17T18:18:56.458Z,21.63
2022-10-17T18:21:01.931Z,22.48
2022-10-17T18:23:04.423Z,21.33
2022-10-17T18:25:12.761Z,21.33
2022-10-17T18:27:16.368Z,19.77
2022-10-17T18:29:19.695Z,20.67
2022-10-17T18:31:29.863Z,20.10
2022-10-17T18:33:33.213Z,20.38
2022-10-17T18:35:35.186Z,18.45
2022-10-17T18:39:54.479Z,17.73
2022-10-17T18:41:59.021Z,16.20
2022-10-17T18:44:05.893Z,16.77
2022-10-17T18:46:18.397Z,15.82
2022-10-17T18:48:21.847Z,16.30
2022-10-17T18:50:25.144Z,15.52
2022-10-17T18:52:29.390Z,15.63
2022-10-17T18:54:34.066Z,15.68
2022-10-17T18:56:36.631Z,15.13
2022-10-17T18:58:41.949Z,14.57
2022-10-17T19:00:45.853Z,15.65
2022-10-17T19:02:48.307Z,15.55
2022-10-17T19:04:51.609Z,16.63
2022-10-17T19:06:56.899Z,16.25
2022-10-17T19:09:00.502Z,15.43
2022-10-17T19:11:24.161Z,14.73
2022-10-17T19:13:26.601Z,14.40
2022-10-17T19:15:29.957Z,14.00
2022-10-17T19:17:36.942Z,15.68
2022-10-17T19:19:39.533Z,16.55
2022-10-17T19:21:43.259Z,17.05
2022-10-17T19:23:59.055Z,18.35
2022-10-17T19:26:08.692Z,18.65
2022-10-17T19:28:10.626Z,18.33
2022-10-17T19:30:16.152Z,19.10
2022-10-17T19:32:22.857Z,16.60
2022-10-17T19:34:25.260Z,18.05
2022-10-17T19:36:33.560Z,17.35
2022-10-17T19:38:36.103Z,18.55
2022-10-17T19:40:41.799Z,17.08
2022-10-17T19:42:44.275Z,17.25
2022-10-17T19:44:46.221Z,16.75
2022-10-17T19:46:49.509Z,16.73
2022-10-17T19:48:53.591Z,16.40
2022-10-17T19:50:57.293Z,16.15
2022-10-17T19:52:59.299Z,15.85
2022-10-17T19:55:02.746Z,16.20
2022-10-17T19:57:09.476Z,16.13
2022-10-17T19:59:15.330Z,16.38
2022-10-17T20:01:27.477Z,17.08
2022-10-17T20:03:32.376Z,15.60
2022-10-17T20:05:38.108Z,16.30
2022-10-17T20:07:40.739Z,17.33
2022-10-17T20:09:46.160Z,16.48
2022-10-17T20:11:50.195Z,15.70
2022-10-17T20:13:53.266Z,16.58
2022-10-17T20:15:57.122Z,15.45
2022-10-17T20:17:59.238Z,16.25
2022-10-17T20:20:03.512Z,14.75
2022-10-17T20:22:08.257Z,16.63
2022-10-17T20:24:14.460Z,15.43
2022-10-17T20:28:43.969Z,15.25
2022-10-17T20:30:50.822Z,14.60
2022-10-17T20:32:55.798Z,15.48
2022-10-17T20:34:58.721Z,14.63
2022-10-17T20:37:03.097Z,14.50
2022-10-17T20:39:06.291Z,14.75
2022-10-17T20:41:09.861Z,15.65
2022-10-17T20:43:13.184Z,15.32
2022-10-17T20:45:15.176Z,16.42
2022-10-17T20:47:39.841Z,15.57
2022-10-17T20:49:39.927Z,15.70
2022-10-17T20:51:43.329Z,16.10
2022-10-17T20:53:53.623Z,13.82
2022-10-17T20:56:22.505Z,13.40
2022-10-17T20:58:24.730Z,13.02
2022-10-17T21:00:26.888Z,14.05
2022-10-17T21:02:33.091Z,13.32
2022-10-17T21:04:51.472Z,14.00
2022-10-17T21:06:54.577Z,14.00
2022-10-17T21:09:05.147Z,13.52
2022-10-17T21:11:17.740Z,14.70
2022-10-17T21:13:19.715Z,13.38
2022-10-17T21:15:22.266Z,13.98
2022-10-17T21:17:25.767Z,13.98
2022-10-17T21:19:28.905Z,13.07
2022-10-17T21:21:39.950Z,14.32
2022-10-17T21:23:43.772Z,13.73
2022-10-17T21:25:55.791Z,14.63
2022-10-17T21:28:09.021Z,14.23
2022-10-17T21:30:13.042Z,14.45
2022-10-17T21:32:39.438Z,14.20
2022-10-17T21:34:47.731Z,13.80
2022-10-17T21:36:52.595Z,13.48
2022-10-17T21:38:57.117Z,14.70
2022-10-17T21:40:59.677Z,12.27
2022-10-17T21:43:02.711Z,12.80
2022-10-17T21:45:15.111Z,12.57
2022-10-17T21:47:25.480Z,11.40
2022-10-17T21:49:31.866Z,11.90
2022-10-17T21:51:55.319Z,11.38
2022-10-17T21:54:04.401Z,11.80
2022-10-17T21:56:13.805Z,10.73
2022-10-17T21:58:16.000Z,9.73
2022-10-17T22:00:19.336Z,10.02
2022-10-17T22:02:25.483Z,9.60
2022-10-17T22:04:27.473Z,10.63
2022-10-17T22:06:40.473Z,9.18
2022-10-17T22:08:50.376Z,9.00
2022-10-17T22:10:53.529Z,8.40
2022-10-17T22:12:55.658Z,8.60
2022-10-17T22:14:58.553Z,8.10
2022-10-17T22:17:01.702Z,8.07
2022-10-17T22:19:06.490Z,7.85
2022-10-17T22:21:21.440Z,7.65
2022-10-17T22:23:26.509Z,7.40
2022-10-17T22:25:29.549Z,7.53
2022-10-17T22:27:34.058Z,6.70
2022-10-17T22:29:37.176Z,7.13
2022-10-17T22:31:48.057Z,6.80
2022-10-17T22:33:53.287Z,7.10
2022-10-17T22:35:57.909Z,7.07
2022-10-17T22:38:00.913Z,7.05
2022-10-17T22:40:07.110Z,7.10
2022-10-17T22:42:09.135Z,6.90
2022-10-17T22:44:16.762Z,6.22
2022-10-17T22:46:22.833Z,7.63
2022-10-17T22:48:26.210Z,6.45
2022-10-17T22:50:29.649Z,6.63
2022-10-17T22:52:40.933Z,6.70
2022-10-17T22:54:44.357Z,6.25
2022-10-17T22:56:53.231Z,7.15
2022-10-17T22:59:03.417Z,6.43
2022-10-17T23:01:17.637Z,6.43
2022-10-17T23:03:24.539Z,5.72
2022-10-17T23:05:28.564Z,6.18
2022-10-17T23:07:31.722Z,6.47
2022-10-17T23:09:33.780Z,6.35
2022-10-17T23:11:35.863Z,5.97
2022-10-17T23:13:41.145Z,6.65
2022-10-17T23:15:46.405Z,6.38
2022-10-17T23:17:48.862Z,7.25
2022-10-17T23:19:52.943Z,6.05
2022-10-17T23:21:58.755Z,6.47
2022-10-17T23:24:05.238Z,6.05
2022-10-17T23:26:13.944Z,6.78
2022-10-17T23:28:17.651Z,6.68
2022-10-17T23:30:22.737Z,6.38
2022-10-17T23:32:29.815Z,6.43
2022-10-17T23:34:32.030Z,6.05
2022-10-17T23:36:40.684Z,6.35
2022-10-17T23:38:45.346Z,6.20
2022-10-17T23:40:47.273Z,6.22
2022-10-17T23:42:51.943Z,6.60
2022-10-17T23:44:53.988Z,6.03
2022-10-17T23:47:03.235Z,7.93
2022-10-17T23:49:08.051Z,6.10
2022-10-17T23:51:11.474Z,6.30
2022-10-17T23:53:13.518Z,5.82
2022-10-17T23:55:17.487Z,6.20
2022-10-17T23:57:27.382Z,6.47
2022-10-17T23:59:30.570Z,6.05
